createdAt,value
2019-03-19T00:01:45.577Z,1.69
2019-03-19T00:06:54.663Z,2.22
2019-03-19T00:12:03.867Z,1.75
2019-03-19T00:17:13.062Z,2.31
2019-03-19T00:22:22.318Z,1.88
2019-03-19T00:27:31.478Z,1.50
2019-03-19T00:32:40.571Z,2.18
2019-03-19T00:37:49.687Z,2.01
2019-03-19T00:42:58.755Z,1.51
2019-03-19T00:48:07.911Z,1.65
2019-03-19T00:53:16.966Z,1.63
2019-03-19T00:58:26.102Z,1.50
2019-03-19T01:03:35.189Z,1.17
2019-03-19T01:08:44.331Z,1.43
2019-03-19T01:13:53.382Z,1.39
2019-03-19T01:19:02.542Z,1.58
2019-03-19T01:24:11.779Z,1.73
2019-03-19T01:29:20.886Z,1.43
2019-03-19T01:34:29.973Z,1.37
2019-03-19T01:39:39.234Z,1.34
2019-03-19T01:44:48.241Z,1.07
2019-03-19T01:49:57.424Z,1.33
2019-03-19T01:55:06.478Z,1.34
2019-03-19T02:00:16.061Z,1.00
2019-03-19T02:05:25.042Z,1.29
2019-03-19T02:10:34.193Z,1.06
2019-03-19T02:15:43.295Z,1.13
2019-03-19T02:20:52.394Z,1.05
2019-03-19T02:26:01.410Z,1.56
2019-03-19T02:31:10.539Z,1.38
2019-03-19T02:36:19.580Z,1.14
2019-03-19T02:41:28.790Z,0.89
2019-03-19T02:46:38.251Z,0.98
2019-03-19T02:51:47.543Z,1.12
2019-03-19T02:56:56.612Z,1.21
2019-03-19T03:02:05.719Z,1.10
2019-03-19T03:07:14.723Z,1.17
2019-03-19T03:12:23.830Z,1.14
2019-03-19T03:17:32.906Z,1.04
2019-03-19T03:22:42.043Z,1.04
2019-03-19T03:27:51.071Z,1.15
2019-03-19T03:33:00.309Z,0.94
2019-03-19T03:38:09.394Z,0.96
2019-03-19T03:43:18.523Z,1.04
2019-03-19T03:48:27.591Z,1.06
2019-03-19T03:53:36.705Z,0.94
2019-03-19T03:58:59.630Z,1.02
2019-03-19T04:03:54.377Z,0.84
2019-03-19T04:09:03.414Z,0.69
2019-03-19T04:14:12.586Z,0.77
2019-03-19T04:19:21.670Z,0.81
2019-03-19T04:24:30.786Z,1.04
2019-03-19T04:29:39.971Z,1.04
2019-03-19T04:34:49.103Z,1.24
2019-03-19T04:39:58.170Z,1.40
2019-03-19T04:45:07.350Z,1.21
2019-03-19T04:50:16.390Z,0.83
2019-03-19T04:55:25.495Z,0.84
2019-03-19T05:00:34.512Z,0.79
2019-03-19T05:05:43.713Z,0.96
2019-03-19T05:10:52.774Z,1.59
2019-03-19T05:16:01.913Z,1.14
2019-03-19T05:21:11.001Z,1.60
2019-03-19T05:26:21.159Z,1.68
2019-03-19T05:31:20.174Z,2.36
2019-03-19T05:36:29.587Z,1.86
2019-03-19T05:41:38.622Z,2.45
2019-03-19T05:46:47.739Z,2.18
2019-03-19T05:51:56.771Z,2.43
2019-03-19T05:57:05.922Z,2.47
2019-03-19T06:02:14.986Z,3.01
2019-03-19T06:07:24.199Z,2.77
2019-03-19T06:12:33.269Z,3.58
2019-03-19T06:17:42.438Z,3.67
2019-03-19T06:22:51.471Z,3.21
2019-03-19T06:28:01.041Z,3.22
2019-03-19T06:33:09.206Z,2.87
2019-03-19T06:38:18.344Z,2.77
2019-03-19T06:43:27.444Z,2.82
2019-03-19T06:48:36.587Z,3.41
2019-03-19T06:53:45.818Z,3.04
2019-03-19T06:58:54.950Z,2.73
2019-03-19T07:04:04.003Z,2.06
2019-03-19T07:09:13.274Z,2.16
2019-03-19T07:14:22.651Z,1.88
2019-03-19T07:19:31.854Z,1.87
2019-03-19T07:24:40.938Z,2.08
2019-03-19T07:29:52.170Z,1.90
2019-03-19T07:34:51.311Z,2.59
2019-03-19T07:40:00.518Z,2.49
2019-03-19T07:45:09.610Z,2.20
2019-03-19T07:50:18.903Z,1.84
2019-03-19T07:55:27.930Z,2.39
2019-03-19T08:00:37.105Z,2.11
2019-03-19T08:05:46.187Z,1.68
2019-03-19T08:10:55.352Z,1.39
2019-03-19T08:16:04.446Z,1.61
2019-03-19T08:21:13.550Z,1.00
2019-03-19T08:26:22.701Z,1.05
2019-03-19T08:31:31.883Z,1.01
2019-03-19T08:36:40.926Z,0.89
2019-03-19T08:41:50.057Z,0.87
2019-03-19T08:46:59.101Z,0.72
2019-03-19T08:52:08.169Z,0.83
2019-03-19T08:57:17.221Z,1.12
2019-03-19T09:02:26.343Z,0.75
2019-03-19T09:07:35.452Z,0.56
2019-03-19T09:12:44.610Z,0.63
2019-03-19T09:17:53.691Z,0.70
2019-03-19T09:23:02.791Z,0.58
2019-03-19T09:28:11.839Z,0.32
2019-03-19T09:33:21.016Z,0.37
2019-03-19T09:38:30.055Z,0.28
2019-03-19T09:43:39.281Z,0.25
2019-03-19T09:48:48.334Z,0.29
2019-03-19T09:53:57.449Z,0.39
2019-03-19T09:59:06.450Z,0.32
2019-03-19T10:04:15.574Z,0.19
2019-03-19T10:09:24.883Z,0.13
2019-03-19T10:14:34.009Z,0.10
2019-03-19T10:19:43.098Z,0.25
2019-03-19T10:24:52.234Z,0.24
2019-03-19T10:30:01.326Z,0.26
2019-03-19T10:35:10.447Z,0.40
2019-03-19T10:40:19.501Z,0.79
2019-03-19T10:45:28.604Z,0.75
2019-03-19T10:50:37.812Z,0.61
2019-03-19T10:55:46.918Z,0.63
2019-03-19T11:00:55.950Z,0.49
2019-03-19T11:06:05.138Z,0.79
2019-03-19T11:11:14.295Z,0.45
2019-03-19T11:16:23.513Z,0.58
2019-03-19T11:21:32.571Z,0.56
2019-03-19T11:26:41.750Z,0.82
2019-03-19T11:31:50.930Z,0.56
2019-03-19T11:37:00.087Z,0.68
2019-03-19T11:42:09.147Z,0.61
2019-03-19T11:47:18.308Z,0.69
2019-03-19T11:52:27.824Z,0.82
2019-03-19T11:57:36.996Z,0.62
2019-03-19T12:02:46.070Z,0.79
2019-03-19T12:07:55.242Z,0.55
2019-03-19T12:13:04.286Z,0.82
2019-03-19T12:18:13.410Z,0.81
2019-03-19T12:23:22.419Z,1.25
2019-03-19T12:28:39.257Z,0.77
2019-03-19T12:33:41.038Z,0.57
2019-03-19T12:38:47.830Z,0.62
2019-03-19T12:43:56.923Z,0.52
2019-03-19T12:49:06.091Z,0.73
2019-03-19T12:54:15.139Z,0.72
2019-03-19T12:59:24.312Z,0.67
2019-03-19T13:04:33.795Z,0.59
2019-03-19T13:09:42.920Z,0.73
2019-03-19T13:14:51.982Z,0.60
2019-03-19T13:20:01.114Z,0.45
2019-03-19T13:25:11.839Z,0.64
2019-03-19T13:30:18.924Z,0.81
2019-03-19T13:35:28.478Z,0.89
2019-03-19T13:40:37.579Z,0.67
2019-03-19T13:45:47.014Z,1.12
2019-03-19T13:50:56.427Z,1.63
2019-03-19T13:56:05.631Z,1.47
2019-03-19T14:01:14.770Z,1.68
2019-03-19T14:06:23.841Z,1.60
2019-03-19T14:11:32.955Z,1.26
2019-03-19T14:16:42.014Z,1.09
2019-03-19T14:21:51.149Z,1.17
2019-03-19T14:27:00.222Z,1.32
2019-03-19T14:32:09.339Z,1.24
2019-03-19T14:37:18.383Z,1.29
2019-03-19T14:42:27.518Z,0.96
2019-03-19T14:47:36.570Z,1.02
2019-03-19T14:52:45.787Z,0.98
2019-03-19T14:57:54.853Z,0.94
2019-03-19T15:03:03.966Z,0.73
2019-03-19T15:08:13.114Z,0.75
2019-03-19T15:13:22.366Z,0.67
2019-03-19T15:18:31.861Z,0.87
2019-03-19T15:23:41.115Z,0.91
2019-03-19T15:29:02.984Z,0.87
2019-03-19T15:33:52.054Z,1.00
2019-03-19T15:39:01.146Z,0.93
2019-03-19T15:44:10.302Z,0.84
2019-03-19T15:49:19.390Z,0.91
2019-03-19T15:54:28.530Z,1.09
2019-03-19T15:59:37.607Z,1.50
2019-03-19T16:04:46.767Z,2.08
2019-03-19T16:09:55.785Z,1.95
2019-03-19T16:15:04.989Z,2.14
2019-03-19T16:20:14.065Z,1.83
2019-03-19T16:25:23.226Z,1.76
2019-03-19T16:30:32.277Z,2.57
2019-03-19T16:35:41.511Z,2.35
2019-03-19T16:40:50.578Z,2.35
2019-03-19T16:45:59.710Z,2.00
2019-03-19T16:51:08.831Z,2.24
2019-03-19T16:56:18.030Z,3.09
2019-03-19T17:01:27.102Z,2.95
2019-03-19T17:06:36.333Z,3.15
2019-03-19T17:11:45.379Z,3.08
2019-03-19T17:16:54.606Z,3.54
2019-03-19T17:22:03.622Z,3.93
2019-03-19T17:27:12.733Z,3.54
2019-03-19T17:32:21.766Z,3.35
2019-03-19T17:37:30.902Z,3.32
2019-03-19T17:42:39.973Z,3.67
2019-03-19T17:47:49.213Z,3.79
2019-03-19T17:52:58.471Z,3.85
2019-03-19T17:58:08.638Z,4.00
2019-03-19T18:03:19.535Z,4.01
2019-03-19T18:08:08.599Z,4.15
2019-03-19T18:13:17.646Z,4.66
2019-03-19T18:18:26.757Z,4.54
2019-03-19T18:23:35.818Z,5.16
2019-03-19T18:28:44.941Z,4.65
2019-03-19T18:33:54.009Z,4.99
2019-03-19T18:39:03.142Z,5.14
2019-03-19T18:44:12.210Z,4.60
2019-03-19T18:49:21.282Z,4.70
2019-03-19T18:54:30.326Z,4.03
2019-03-19T18:59:39.443Z,5.40
2019-03-19T19:04:47.058Z,4.43
2019-03-19T19:09:56.278Z,5.49
2019-03-19T19:15:05.311Z,6.00
2019-03-19T19:20:14.452Z,5.35
2019-03-19T19:25:23.513Z,5.50
2019-03-19T19:30:32.676Z,6.57
2019-03-19T19:35:41.722Z,7.19
2019-03-19T19:40:50.840Z,6.85
2019-03-19T19:45:59.926Z,6.95
2019-03-19T19:51:09.098Z,7.53
2019-03-19T19:56:18.146Z,8.07
2019-03-19T20:01:27.358Z,6.97
2019-03-19T20:06:36.447Z,7.31
2019-03-19T20:11:46.663Z,7.54
2019-03-19T20:16:45.685Z,7.88
2019-03-19T20:21:54.854Z,8.60
2019-03-19T20:27:03.952Z,8.10
2019-03-19T20:32:13.063Z,8.66
2019-03-19T20:37:22.120Z,8.03
2019-03-19T20:42:31.254Z,8.80
2019-03-19T20:47:40.280Z,9.50
2019-03-19T20:52:49.390Z,8.71
2019-03-19T20:57:58.466Z,8.73
2019-03-19T21:03:07.594Z,8.34
2019-03-19T21:08:16.642Z,8.47
2019-03-19T21:13:25.822Z,8.43
2019-03-19T21:18:37.527Z,8.01
2019-03-19T21:23:36.570Z,7.92
2019-03-19T21:28:45.624Z,7.52
2019-03-19T21:33:54.776Z,6.85
2019-03-19T21:39:03.818Z,8.66
2019-03-19T21:44:12.958Z,9.07
2019-03-19T21:49:21.974Z,8.73
2019-03-19T21:54:31.119Z,8.12
2019-03-19T21:59:40.219Z,8.42
2019-03-19T22:04:49.430Z,8.53
2019-03-19T22:09:58.493Z,7.97
2019-03-19T22:15:07.614Z,8.09
2019-03-19T22:20:16.654Z,8.34
2019-03-19T22:25:25.758Z,7.51
2019-03-19T22:30:34.882Z,7.51
2019-03-19T22:35:44.168Z,7.84
2019-03-19T22:40:53.213Z,7.51
2019-03-19T22:46:02.425Z,6.80
2019-03-19T22:51:11.522Z,7.38
2019-03-19T22:56:20.697Z,7.86
2019-03-19T23:01:29.754Z,7.58
2019-03-19T23:06:39.359Z,7.03
2019-03-19T23:11:48.386Z,7.20
2019-03-19T23:16:57.493Z,7.17
2019-03-19T23:22:06.529Z,6.79
2019-03-19T23:27:15.665Z,7.43
2019-03-19T23:32:24.874Z,6.32
2019-03-19T23:37:33.872Z,6.43
2019-03-19T23:42:42.966Z,6.41
2019-03-19T23:47:52.102Z,5.71
2019-03-19T23:53:01.156Z,5.58
2019-03-19T23:58:10.326Z,6.06
